sensor_id;sensor_type;location;lat;lon;timestamp;P1;durP1;ratioP1;P2;durP2;ratioP2
3901;SDS011;1966;49.908;9.156;2023-01-13T00:01:27;5.27;;;1.70;;
3901;SDS011;1966;49.908;9.156;2023-01-13T00:06:26;5.73;;;1.83;;
3901;SDS011;1966;49.908;9.156;2023-01-13T00:11:26;6.00;;;1.97;;
3901;SDS011;1966;49.908;9.156;2023-01-13T00:16:26;5.23;;;1.60;;
3901;SDS011;1966;49.908;9.156;2023-01-13T00:21:26;1.80;;;1.70;;
3901;SDS011;1966;49.908;9.156;2023-01-13T00:26:26;5.40;;;1.50;;
3901;SDS011;1966;49.908;9.156;2023-01-13T00:31:28;2.30;;;1.40;;
3901;SDS011;1966;49.908;9.156;2023-01-13T00:36:28;1.93;;;1.50;;
3901;SDS011;1966;49.908;9.156;2023-01-13T00:41:27;1.73;;;1.63;;
3901;SDS011;1966;49.908;9.156;2023-01-13T00:46:48;5.93;;;1.47;;
3901;SDS011;1966;49.908;9.156;2023-01-13T00:51:47;3.03;;;1.40;;
3901;SDS011;1966;49.908;9.156;2023-01-13T00:56:46;1.70;;;1.37;;
3901;SDS011;1966;49.908;9.156;2023-01-13T01:01:46;1.40;;;1.30;;
3901;SDS011;1966;49.908;9.156;2023-01-13T01:06:46;1.57;;;1.47;;
3901;SDS011;1966;49.908;9.156;2023-01-13T01:11:45;1.77;;;1.33;;
3901;SDS011;1966;49.908;9.156;2023-01-13T01:16:45;1.43;;;1.33;;
3901;SDS011;1966;49.908;9.156;2023-01-13T01:21:44;2.47;;;1.47;;
3901;SDS011;1966;49.908;9.156;2023-01-13T01:26:44;1.50;;;1.30;;
3901;SDS011;1966;49.908;9.156;2023-01-13T01:31:44;3.53;;;1.53;;
3901;SDS011;1966;49.908;9.156;2023-01-13T01:36:43;4.20;;;1.60;;
3901;SDS011;1966;49.908;9.156;2023-01-13T01:41:42;2.53;;;1.53;;
3901;SDS011;1966;49.908;9.156;2023-01-13T01:47:03;1.70;;;1.60;;
3901;SDS011;1966;49.908;9.156;2023-01-13T01:52:03;1.37;;;1.27;;
3901;SDS011;1966;49.908;9.156;2023-01-13T01:57:04;3.07;;;1.70;;
3901;SDS011;1966;49.908;9.156;2023-01-13T02:02:05;1.50;;;1.40;;
3901;SDS011;1966;49.908;9.156;2023-01-13T02:07:04;1.30;;;1.20;;
3901;SDS011;1966;49.908;9.156;2023-01-13T02:12:04;1.50;;;1.40;;
3901;SDS011;1966;49.908;9.156;2023-01-13T02:17:24;1.40;;;1.30;;
3901;SDS011;1966;49.908;9.156;2023-01-13T02:22:31;1.63;;;1.40;;
3901;SDS011;1966;49.908;9.156;2023-01-13T02:27:41;3.00;;;1.33;;
3901;SDS011;1966;49.908;9.156;2023-01-13T02:32:45;2.07;;;1.23;;
3901;SDS011;1966;49.908;9.156;2023-01-13T02:37:46;3.90;;;1.50;;
3901;SDS011;1966;49.908;9.156;2023-01-13T02:42:47;1.47;;;1.37;;
3901;SDS011;1966;49.908;9.156;2023-01-13T02:48:06;1.77;;;1.30;;
3901;SDS011;1966;49.908;9.156;2023-01-13T02:53:07;2.50;;;1.50;;
3901;SDS011;1966;49.908;9.156;2023-01-13T02:58:09;2.80;;;1.20;;
3901;SDS011;1966;49.908;9.156;2023-01-13T03:03:12;1.40;;;1.20;;
3901;SDS011;1966;49.908;9.156;2023-01-13T03:08:16;1.67;;;1.40;;
3901;SDS011;1966;49.908;9.156;2023-01-13T03:13:20;1.53;;;1.33;;
3901;SDS011;1966;49.908;9.156;2023-01-13T03:18:29;1.47;;;1.23;;
3901;SDS011;1966;49.908;9.156;2023-01-13T03:23:31;2.40;;;1.33;;
3901;SDS011;1966;49.908;9.156;2023-01-13T03:28:31;2.80;;;1.37;;
3901;SDS011;1966;49.908;9.156;2023-01-13T03:33:33;1.80;;;1.30;;
3901;SDS011;1966;49.908;9.156;2023-01-13T03:38:34;1.80;;;1.20;;
3901;SDS011;1966;49.908;9.156;2023-01-13T03:43:35;1.63;;;1.53;;
3901;SDS011;1966;49.908;9.156;2023-01-13T03:48:55;1.87;;;1.33;;
3901;SDS011;1966;49.908;9.156;2023-01-13T03:53:56;2.20;;;1.50;;
3901;SDS011;1966;49.908;9.156;2023-01-13T03:58:56;2.37;;;1.53;;
3901;SDS011;1966;49.908;9.156;2023-01-13T04:03:59;1.37;;;1.27;;
3901;SDS011;1966;49.908;9.156;2023-01-13T04:09:00;1.87;;;1.43;;
3901;SDS011;1966;49.908;9.156;2023-01-13T04:14:01;5.70;;;1.40;;
3901;SDS011;1966;49.908;9.156;2023-01-13T04:19:02;1.53;;;1.27;;
3901;SDS011;1966;49.908;9.156;2023-01-13T04:24:03;1.23;;;1.20;;
3901;SDS011;1966;49.908;9.156;2023-01-13T04:29:03;1.30;;;1.20;;
3901;SDS011;1966;49.908;9.156;2023-01-13T04:34:05;1.33;;;1.23;;
3901;SDS011;1966;49.908;9.156;2023-01-13T04:39:05;1.30;;;1.20;;
3901;SDS011;1966;49.908;9.156;2023-01-13T04:44:04;4.60;;;3.80;;
3901;SDS011;1966;49.908;9.156;2023-01-13T04:49:03;1.73;;;1.30;;
3901;SDS011;1966;49.908;9.156;2023-01-13T04:54:04;1.30;;;1.20;;
3901;SDS011;1966;49.908;9.156;2023-01-13T04:59:03;1.50;;;1.40;;
3901;SDS011;1966;49.908;9.156;2023-01-13T05:04:02;2.07;;;1.23;;
3901;SDS011;1966;49.908;9.156;2023-01-13T05:09:03;1.77;;;1.67;;
3901;SDS011;1966;49.908;9.156;2023-01-13T05:14:02;2.23;;;1.30;;
3901;SDS011;1966;49.908;9.156;2023-01-13T05:19:19;1.50;;;1.40;;
3901;SDS011;1966;49.908;9.156;2023-01-13T05:24:20;1.40;;;1.30;;
3901;SDS011;1966;49.908;9.156;2023-01-13T05:29:37;2.67;;;1.30;;
3901;SDS011;1966;49.908;9.156;2023-01-13T05:34:36;1.37;;;1.27;;
3901;SDS011;1966;49.908;9.156;2023-01-13T05:39:36;1.77;;;1.40;;
3901;SDS011;1966;49.908;9.156;2023-01-13T05:44:50;1.67;;;1.10;;
3901;SDS011;1966;49.908;9.156;2023-01-13T05:49:49;1.53;;;1.43;;
3901;SDS011;1966;49.908;9.156;2023-01-13T05:54:49;4.00;;;1.50;;
3901;SDS011;1966;49.908;9.156;2023-01-13T05:59:49;1.50;;;1.27;;
3901;SDS011;1966;49.908;9.156;2023-01-13T06:04:48;1.50;;;1.40;;
3901;SDS011;1966;49.908;9.156;2023-01-13T06:09:47;4.17;;;1.33;;
3901;SDS011;1966;49.908;9.156;2023-01-13T06:14:48;2.47;;;1.60;;
3901;SDS011;1966;49.908;9.156;2023-01-13T06:19:47;1.93;;;1.50;;
3901;SDS011;1966;49.908;9.156;2023-01-13T06:24:48;1.57;;;1.43;;
3901;SDS011;1966;49.908;9.156;2023-01-13T06:29:49;1.50;;;1.40;;
3901;SDS011;1966;49.908;9.156;2023-01-13T06:34:49;2.47;;;1.67;;
3901;SDS011;1966;49.908;9.156;2023-01-13T06:39:49;3.80;;;1.50;;
3901;SDS011;1966;49.908;9.156;2023-01-13T06:44:50;2.83;;;1.60;;
3901;SDS011;1966;49.908;9.156;2023-01-13T06:49:49;2.03;;;1.57;;
3901;SDS011;1966;49.908;9.156;2023-01-13T06:54:49;3.47;;;1.80;;
3901;SDS011;1966;49.908;9.156;2023-01-13T06:59:48;2.17;;;1.70;;
3901;SDS011;1966;49.908;9.156;2023-01-13T07:04:49;1.77;;;1.63;;
3901;SDS011;1966;49.908;9.156;2023-01-13T07:09:48;2.60;;;1.10;;
3901;SDS011;1966;49.908;9.156;2023-01-13T07:14:47;1.77;;;1.07;;
3901;SDS011;1966;49.908;9.156;2023-01-13T07:20:17;2.40;;;1.40;;
3901;SDS011;1966;49.908;9.156;2023-01-13T07:25:16;2.50;;;2.30;;
3901;SDS011;1966;49.908;9.156;2023-01-13T07:30:16;1.63;;;1.50;;
3901;SDS011;1966;49.908;9.156;2023-01-13T07:35:17;5.07;;;2.00;;
3901;SDS011;1966;49.908;9.156;2023-01-13T07:40:20;1.63;;;1.33;;
3901;SDS011;1966;49.908;9.156;2023-01-13T07:45:19;3.10;;;1.63;;
3901;SDS011;1966;49.908;9.156;2023-01-13T07:50:20;1.50;;;1.40;;
3901;SDS011;1966;49.908;9.156;2023-01-13T07:55:20;4.07;;;2.60;;
3901;SDS011;1966;49.908;9.156;2023-01-13T08:00:20;3.00;;;2.27;;
3901;SDS011;1966;49.908;9.156;2023-01-13T08:05:20;3.57;;;1.40;;
3901;SDS011;1966;49.908;9.156;2023-01-13T08:10:20;1.20;;;1.10;;
3901;SDS011;1966;49.908;9.156;2023-01-13T08:15:19;1.40;;;1.30;;
3901;SDS011;1966;49.908;9.156;2023-01-13T08:20:18;1.30;;;1.20;;
3901;SDS011;1966;49.908;9.156;2023-01-13T08:25:19;1.60;;;1.50;;
3901;SDS011;1966;49.908;9.156;2023-01-13T08:30:18;5.33;;;1.37;;
3901;SDS011;1966;49.908;9.156;2023-01-13T08:35:18;1.37;;;1.27;;
3901;SDS011;1966;49.908;9.156;2023-01-13T08:40:19;2.00;;;1.30;;
3901;SDS011;1966;49.908;9.156;2023-01-13T08:45:19;2.20;;;1.67;;
3901;SDS011;1966;49.908;9.156;2023-01-13T08:50:18;2.50;;;1.60;;
3901;SDS011;1966;49.908;9.156;2023-01-13T08:55:19;3.00;;;1.70;;
3901;SDS011;1966;49.908;9.156;2023-01-13T09:00:18;2.83;;;1.97;;
3901;SDS011;1966;49.908;9.156;2023-01-13T09:05:18;1.70;;;1.27;;
3901;SDS011;1966;49.908;9.156;2023-01-13T09:10:19;1.87;;;1.60;;
3901;SDS011;1966;49.908;9.156;2023-01-13T09:15:19;1.53;;;1.43;;
3901;SDS011;1966;49.908;9.156;2023-01-13T09:20:18;2.63;;;1.50;;
3901;SDS011;1966;49.908;9.156;2023-01-13T09:25:19;6.07;;;2.00;;
3901;SDS011;1966;49.908;9.156;2023-01-13T09:30:19;2.07;;;1.50;;
3901;SDS011;1966;49.908;9.156;2023-01-13T09:35:18;2.80;;;1.67;;
3901;SDS011;1966;49.908;9.156;2023-01-13T09:40:18;1.50;;;1.40;;
3901;SDS011;1966;49.908;9.156;2023-01-13T09:45:21;1.50;;;1.40;;
3901;SDS011;1966;49.908;9.156;2023-01-13T09:50:23;1.80;;;1.47;;
3901;SDS011;1966;49.908;9.156;2023-01-13T09:55:28;3.70;;;1.57;;
3901;SDS011;1966;49.908;9.156;2023-01-13T10:00:32;2.80;;;1.33;;
3901;SDS011;1966;49.908;9.156;2023-01-13T10:05:33;5.53;;;1.80;;
3901;SDS011;1966;49.908;9.156;2023-01-13T10:10:36;2.43;;;1.70;;
3901;SDS011;1966;49.908;9.156;2023-01-13T10:15:37;6.13;;;1.50;;
3901;SDS011;1966;49.908;9.156;2023-01-13T10:20:40;1.77;;;1.40;;
3901;SDS011;1966;49.908;9.156;2023-01-13T10:25:47;2.20;;;1.70;;
3901;SDS011;1966;49.908;9.156;2023-01-13T10:30:54;3.53;;;1.80;;
3901;SDS011;1966;49.908;9.156;2023-01-13T10:35:57;3.40;;;1.50;;
3901;SDS011;1966;49.908;9.156;2023-01-13T10:40:57;3.43;;;1.87;;
3901;SDS011;1966;49.908;9.156;2023-01-13T10:45:59;2.80;;;1.50;;
3901;SDS011;1966;49.908;9.156;2023-01-13T10:51:08;4.03;;;1.60;;
3901;SDS011;1966;49.908;9.156;2023-01-13T10:56:09;3.80;;;1.80;;
3901;SDS011;1966;49.908;9.156;2023-01-13T11:01:19;3.90;;;1.50;;
3901;SDS011;1966;49.908;9.156;2023-01-13T11:06:19;2.80;;;1.60;;
3901;SDS011;1966;49.908;9.156;2023-01-13T11:16:40;2.10;;;1.50;;
3901;SDS011;1966;49.908;9.156;2023-01-13T11:21:42;3.70;;;1.80;;
3901;SDS011;1966;49.908;9.156;2023-01-13T11:26:45;4.83;;;1.87;;
3901;SDS011;1966;49.908;9.156;2023-01-13T11:31:48;5.37;;;1.70;;
3901;SDS011;1966;49.908;9.156;2023-01-13T11:36:48;6.93;;;1.90;;
3901;SDS011;1966;49.908;9.156;2023-01-13T11:41:51;6.07;;;1.93;;
3901;SDS011;1966;49.908;9.156;2023-01-13T11:47:20;3.03;;;1.70;;
3901;SDS011;1966;49.908;9.156;2023-01-13T11:52:20;6.87;;;1.87;;
3901;SDS011;1966;49.908;9.156;2023-01-13T11:57:32;5.63;;;2.13;;
3901;SDS011;1966;49.908;9.156;2023-01-13T12:02:40;3.83;;;1.87;;
3901;SDS011;1966;49.908;9.156;2023-01-13T12:07:45;2.60;;;1.83;;
3901;SDS011;1966;49.908;9.156;2023-01-13T12:12:47;3.50;;;1.57;;
3901;SDS011;1966;49.908;9.156;2023-01-13T12:17:53;5.10;;;2.40;;
3901;SDS011;1966;49.908;9.156;2023-01-13T12:22:56;2.97;;;1.87;;
3901;SDS011;1966;49.908;9.156;2023-01-13T12:27:58;7.80;;;4.87;;
3901;SDS011;1966;49.908;9.156;2023-01-13T12:33:01;5.50;;;2.00;;
3901;SDS011;1966;49.908;9.156;2023-01-13T12:38:02;3.00;;;2.20;;
3901;SDS011;1966;49.908;9.156;2023-01-13T12:43:10;6.70;;;2.00;;
3901;SDS011;1966;49.908;9.156;2023-01-13T12:48:44;4.70;;;2.20;;
3901;SDS011;1966;49.908;9.156;2023-01-13T12:53:46;4.70;;;1.80;;
3901;SDS011;1966;49.908;9.156;2023-01-13T12:58:45;5.53;;;2.07;;
3901;SDS011;1966;49.908;9.156;2023-01-13T13:09:03;3.50;;;1.90;;
3901;SDS011;1966;49.908;9.156;2023-01-13T13:14:03;11.50;;;2.63;;
3901;SDS011;1966;49.908;9.156;2023-01-13T13:24:23;6.17;;;1.90;;
3901;SDS011;1966;49.908;9.156;2023-01-13T13:29:27;4.77;;;2.00;;
3901;SDS011;1966;49.908;9.156;2023-01-13T13:34:29;6.23;;;2.40;;
3901;SDS011;1966;49.908;9.156;2023-01-13T13:39:31;3.50;;;1.80;;
3901;SDS011;1966;49.908;9.156;2023-01-13T13:44:48;3.90;;;2.13;;
3901;SDS011;1966;49.908;9.156;2023-01-13T13:50:07;3.57;;;1.63;;
3901;SDS011;1966;49.908;9.156;2023-01-13T13:55:13;3.63;;;1.70;;
3901;SDS011;1966;49.908;9.156;2023-01-13T14:00:21;4.73;;;1.83;;
3901;SDS011;1966;49.908;9.156;2023-01-13T14:05:22;5.23;;;1.90;;
3901;SDS011;1966;49.908;9.156;2023-01-13T14:10:26;6.27;;;2.97;;
3901;SDS011;1966;49.908;9.156;2023-01-13T14:15:28;6.20;;;2.17;;
3901;SDS011;1966;49.908;9.156;2023-01-13T14:20:28;7.20;;;2.53;;
3901;SDS011;1966;49.908;9.156;2023-01-13T14:25:30;8.90;;;2.10;;
3901;SDS011;1966;49.908;9.156;2023-01-13T14:30:30;8.30;;;2.40;;
3901;SDS011;1966;49.908;9.156;2023-01-13T14:35:30;4.50;;;2.40;;
3901;SDS011;1966;49.908;9.156;2023-01-13T14:40:40;17.30;;;2.20;;
3901;SDS011;1966;49.908;9.156;2023-01-13T14:45:52;4.50;;;2.23;;
3901;SDS011;1966;49.908;9.156;2023-01-13T14:50:52;6.50;;;1.77;;
3901;SDS011;1966;49.908;9.156;2023-01-13T14:55:53;7.03;;;2.40;;
3901;SDS011;1966;49.908;9.156;2023-01-13T15:06:18;7.63;;;2.97;;
3901;SDS011;1966;49.908;9.156;2023-01-13T15:11:21;8.83;;;4.90;;
3901;SDS011;1966;49.908;9.156;2023-01-13T15:16:21;6.57;;;3.50;;
3901;SDS011;1966;49.908;9.156;2023-01-13T15:21:21;7.00;;;2.53;;
3901;SDS011;1966;49.908;9.156;2023-01-13T15:26:23;8.33;;;2.00;;
3901;SDS011;1966;49.908;9.156;2023-01-13T15:31:23;8.37;;;3.20;;
3901;SDS011;1966;49.908;9.156;2023-01-13T15:36:24;4.93;;;2.10;;
3901;SDS011;1966;49.908;9.156;2023-01-13T15:41:25;8.50;;;2.20;;
3901;SDS011;1966;49.908;9.156;2023-01-13T15:46:42;5.70;;;1.83;;
3901;SDS011;1966;49.908;9.156;2023-01-13T15:51:41;4.47;;;1.70;;
3901;SDS011;1966;49.908;9.156;2023-01-13T15:56:42;6.10;;;1.70;;
3901;SDS011;1966;49.908;9.156;2023-01-13T16:01:41;3.13;;;2.10;;
3901;SDS011;1966;49.908;9.156;2023-01-13T16:06:40;5.67;;;2.03;;
3901;SDS011;1966;49.908;9.156;2023-01-13T16:11:41;4.63;;;2.40;;
3901;SDS011;1966;49.908;9.156;2023-01-13T16:16:40;6.30;;;2.27;;
3901;SDS011;1966;49.908;9.156;2023-01-13T16:21:40;7.60;;;2.20;;
3901;SDS011;1966;49.908;9.156;2023-01-13T16:26:39;9.70;;;3.07;;
3901;SDS011;1966;49.908;9.156;2023-01-13T16:31:39;7.80;;;3.13;;
3901;SDS011;1966;49.908;9.156;2023-01-13T16:36:39;9.50;;;3.20;;
3901;SDS011;1966;49.908;9.156;2023-01-13T16:41:38;7.93;;;3.27;;
3901;SDS011;1966;49.908;9.156;2023-01-13T16:46:37;8.63;;;3.90;;
3901;SDS011;1966;49.908;9.156;2023-01-13T16:51:38;11.57;;;3.00;;
3901;SDS011;1966;49.908;9.156;2023-01-13T16:56:37;10.00;;;3.50;;
3901;SDS011;1966;49.908;9.156;2023-01-13T17:01:37;15.00;;;3.80;;
3901;SDS011;1966;49.908;9.156;2023-01-13T17:06:39;7.73;;;3.60;;
3901;SDS011;1966;49.908;9.156;2023-01-13T17:11:39;6.37;;;2.80;;
3901;SDS011;1966;49.908;9.156;2023-01-13T17:16:38;5.00;;;2.10;;
3901;SDS011;1966;49.908;9.156;2023-01-13T17:21:39;7.43;;;2.50;;
3901;SDS011;1966;49.908;9.156;2023-01-13T17:26:39;8.40;;;2.50;;
3901;SDS011;1966;49.908;9.156;2023-01-13T17:31:40;7.13;;;2.70;;
3901;SDS011;1966;49.908;9.156;2023-01-13T17:36:41;9.73;;;2.80;;
3901;SDS011;1966;49.908;9.156;2023-01-13T17:41:40;7.40;;;2.73;;
3901;SDS011;1966;49.908;9.156;2023-01-13T17:46:40;5.30;;;2.57;;
3901;SDS011;1966;49.908;9.156;2023-01-13T17:51:39;5.60;;;2.53;;
3901;SDS011;1966;49.908;9.156;2023-01-13T17:56:40;9.10;;;3.10;;
3901;SDS011;1966;49.908;9.156;2023-01-13T18:01:39;8.27;;;2.73;;
3901;SDS011;1966;49.908;9.156;2023-01-13T18:06:39;6.47;;;2.20;;
3901;SDS011;1966;49.908;9.156;2023-01-13T18:11:41;6.30;;;2.20;;
3901;SDS011;1966;49.908;9.156;2023-01-13T18:16:40;4.20;;;2.67;;
3901;SDS011;1966;49.908;9.156;2023-01-13T18:21:39;8.63;;;3.57;;
3901;SDS011;1966;49.908;9.156;2023-01-13T18:26:57;9.47;;;2.47;;
3901;SDS011;1966;49.908;9.156;2023-01-13T18:32:20;5.90;;;2.30;;
3901;SDS011;1966;49.908;9.156;2023-01-13T18:37:20;8.27;;;2.80;;
3901;SDS011;1966;49.908;9.156;2023-01-13T18:42:20;6.00;;;2.43;;
3901;SDS011;1966;49.908;9.156;2023-01-13T18:47:37;8.73;;;2.83;;
3901;SDS011;1966;49.908;9.156;2023-01-13T18:52:39;9.27;;;2.27;;
3901;SDS011;1966;49.908;9.156;2023-01-13T18:57:39;5.53;;;2.47;;
3901;SDS011;1966;49.908;9.156;2023-01-13T19:02:39;6.40;;;2.70;;
3901;SDS011;1966;49.908;9.156;2023-01-13T19:07:38;5.23;;;2.40;;
3901;SDS011;1966;49.908;9.156;2023-01-13T19:12:48;8.73;;;2.40;;
3901;SDS011;1966;49.908;9.156;2023-01-13T19:17:47;5.03;;;2.27;;
3901;SDS011;1966;49.908;9.156;2023-01-13T19:22:47;3.73;;;1.83;;
3901;SDS011;1966;49.908;9.156;2023-01-13T19:27:52;4.17;;;2.07;;
3901;SDS011;1966;49.908;9.156;2023-01-13T19:32:51;9.30;;;2.30;;
3901;SDS011;1966;49.908;9.156;2023-01-13T19:37:51;5.40;;;1.80;;
3901;SDS011;1966;49.908;9.156;2023-01-13T19:42:52;3.93;;;2.50;;
3901;SDS011;1966;49.908;9.156;2023-01-13T19:48:09;7.40;;;2.43;;
3901;SDS011;1966;49.908;9.156;2023-01-13T19:53:09;3.20;;;1.87;;
3901;SDS011;1966;49.908;9.156;2023-01-13T19:58:13;5.27;;;2.10;;
3901;SDS011;1966;49.908;9.156;2023-01-13T20:03:12;10.03;;;2.10;;
3901;SDS011;1966;49.908;9.156;2023-01-13T20:08:12;13.10;;;2.30;;
3901;SDS011;1966;49.908;9.156;2023-01-13T20:13:11;7.93;;;2.20;;
3901;SDS011;1966;49.908;9.156;2023-01-13T20:18:12;4.10;;;2.13;;
3901;SDS011;1966;49.908;9.156;2023-01-13T20:23:11;6.30;;;2.07;;
3901;SDS011;1966;49.908;9.156;2023-01-13T20:28:10;7.93;;;2.93;;
3901;SDS011;1966;49.908;9.156;2023-01-13T20:33:11;5.60;;;2.10;;
3901;SDS011;1966;49.908;9.156;2023-01-13T20:38:10;5.23;;;2.17;;
3901;SDS011;1966;49.908;9.156;2023-01-13T20:43:10;9.60;;;2.20;;
3901;SDS011;1966;49.908;9.156;2023-01-13T20:48:09;3.47;;;1.87;;
3901;SDS011;1966;49.908;9.156;2023-01-13T20:53:09;3.17;;;1.93;;
3901;SDS011;1966;49.908;9.156;2023-01-13T20:58:09;6.03;;;3.00;;
3901;SDS011;1966;49.908;9.156;2023-01-13T21:03:08;5.90;;;2.50;;
3901;SDS011;1966;49.908;9.156;2023-01-13T21:08:07;5.53;;;2.03;;
3901;SDS011;1966;49.908;9.156;2023-01-13T21:13:08;7.23;;;2.57;;
3901;SDS011;1966;49.908;9.156;2023-01-13T21:18:25;4.90;;;2.20;;
3901;SDS011;1966;49.908;9.156;2023-01-13T21:23:43;5.50;;;2.10;;
3901;SDS011;1966;49.908;9.156;2023-01-13T21:28:45;10.97;;;2.27;;
3901;SDS011;1966;49.908;9.156;2023-01-13T21:33:44;10.80;;;2.80;;
3901;SDS011;1966;49.908;9.156;2023-01-13T21:38:48;10.63;;;2.60;;
3901;SDS011;1966;49.908;9.156;2023-01-13T21:43:49;6.90;;;2.10;;
3901;SDS011;1966;49.908;9.156;2023-01-13T21:49:05;11.93;;;2.70;;
3901;SDS011;1966;49.908;9.156;2023-01-13T21:54:04;10.83;;;2.50;;
3901;SDS011;1966;49.908;9.156;2023-01-13T21:59:05;9.37;;;2.20;;
3901;SDS011;1966;49.908;9.156;2023-01-13T22:04:05;12.53;;;2.67;;
3901;SDS011;1966;49.908;9.156;2023-01-13T22:09:13;6.77;;;2.27;;
3901;SDS011;1966;49.908;9.156;2023-01-13T22:14:13;8.90;;;2.47;;
3901;SDS011;1966;49.908;9.156;2023-01-13T22:19:13;4.80;;;2.53;;
3901;SDS011;1966;49.908;9.156;2023-01-13T22:24:12;10.97;;;2.70;;
3901;SDS011;1966;49.908;9.156;2023-01-13T22:29:11;6.60;;;2.20;;
3901;SDS011;1966;49.908;9.156;2023-01-13T22:34:12;5.80;;;2.27;;
3901;SDS011;1966;49.908;9.156;2023-01-13T22:39:11;7.00;;;2.20;;
3901;SDS011;1966;49.908;9.156;2023-01-13T22:44:10;8.83;;;2.50;;
3901;SDS011;1966;49.908;9.156;2023-01-13T22:49:10;13.47;;;2.40;;
3901;SDS011;1966;49.908;9.156;2023-01-13T22:54:11;6.50;;;2.43;;
3901;SDS011;1966;49.908;9.156;2023-01-13T22:59:10;13.00;;;2.77;;
3901;SDS011;1966;49.908;9.156;2023-01-13T23:04:10;7.10;;;2.60;;
3901;SDS011;1966;49.908;9.156;2023-01-13T23:09:12;9.30;;;2.77;;
3901;SDS011;1966;49.908;9.156;2023-01-13T23:14:11;10.67;;;2.57;;
3901;SDS011;1966;49.908;9.156;2023-01-13T23:19:10;12.00;;;2.97;;
3901;SDS011;1966;49.908;9.156;2023-01-13T23:24:11;11.43;;;2.20;;
3901;SDS011;1966;49.908;9.156;2023-01-13T23:29:11;10.47;;;3.40;;
3901;SDS011;1966;49.908;9.156;2023-01-13T23:34:10;7.47;;;3.03;;
3901;SDS011;1966;49.908;9.156;2023-01-13T23:39:10;7.30;;;2.73;;
3901;SDS011;1966;49.908;9.156;2023-01-13T23:44:10;8.23;;;2.63;;
3901;SDS011;1966;49.908;9.156;2023-01-13T23:49:09;7.87;;;2.10;;
3901;SDS011;1966;49.908;9.156;2023-01-13T23:54:09;8.77;;;2.47;;
3901;SDS011;1966;49.908;9.156;2023-01-13T23:59:08;9.70;;;2.20;;
